sensor_id;sensor_type;location;lat;lon;timestamp;P1;durP1;ratioP1;P2;durP2;ratioP2
43042;SDS011;28667;50.758;6.096;2023-11-21T00:15:52;15.05;;;8.52;;
43042;SDS011;28667;50.758;6.096;2023-11-21T00:18:18;20.88;;;8.35;;
43042;SDS011;28667;50.758;6.096;2023-11-21T00:20:44;13.27;;;8.07;;
43042;SDS011;28667;50.758;6.096;2023-11-21T00:23:10;13.13;;;7.97;;
43042;SDS011;28667;50.758;6.096;2023-11-21T00:40:45;21.90;;;10.17;;
43042;SDS011;28667;50.758;6.096;2023-11-21T00:43:11;22.90;;;10.52;;
43042;SDS011;28667;50.758;6.096;2023-11-21T00:45:36;23.00;;;11.05;;
43042;SDS011;28667;50.758;6.096;2023-11-21T00:48:02;24.05;;;11.95;;
43042;SDS011;28667;50.758;6.096;2023-11-21T00:50:30;21.10;;;10.45;;
43042;SDS011;28667;50.758;6.096;2023-11-21T00:52:56;20.92;;;10.98;;
43042;SDS011;28667;50.758;6.096;2023-11-21T00:55:22;28.10;;;11.38;;
43042;SDS011;28667;50.758;6.096;2023-11-21T00:57:47;20.23;;;10.88;;
43042;SDS011;28667;50.758;6.096;2023-11-21T01:00:13;21.02;;;11.15;;
43042;SDS011;28667;50.758;6.096;2023-11-21T01:02:42;24.00;;;11.23;;
43042;SDS011;28667;50.758;6.096;2023-11-21T01:05:10;24.23;;;11.63;;
43042;SDS011;28667;50.758;6.096;2023-11-21T01:07:36;21.98;;;10.13;;
43042;SDS011;28667;50.758;6.096;2023-11-21T01:10:02;24.33;;;10.57;;
43042;SDS011;28667;50.758;6.096;2023-11-21T01:12:31;30.35;;;12.93;;
43042;SDS011;28667;50.758;6.096;2023-11-21T01:14:57;22.15;;;11.55;;
43042;SDS011;28667;50.758;6.096;2023-11-21T01:17:25;26.58;;;10.70;;
43042;SDS011;28667;50.758;6.096;2023-11-21T01:19:52;24.08;;;11.18;;
43042;SDS011;28667;50.758;6.096;2023-11-21T01:22:18;29.38;;;12.48;;
43042;SDS011;28667;50.758;6.096;2023-11-21T01:24:47;24.67;;;11.07;;
43042;SDS011;28667;50.758;6.096;2023-11-21T01:27:13;22.50;;;10.80;;
43042;SDS011;28667;50.758;6.096;2023-11-21T01:29:38;25.45;;;12.23;;
43042;SDS011;28667;50.758;6.096;2023-11-21T01:32:04;28.27;;;12.35;;
43042;SDS011;28667;50.758;6.096;2023-11-21T01:34:33;27.25;;;11.63;;
43042;SDS011;28667;50.758;6.096;2023-11-21T01:36:59;21.92;;;10.45;;
43042;SDS011;28667;50.758;6.096;2023-11-21T01:39:26;19.92;;;10.13;;
43042;SDS011;28667;50.758;6.096;2023-11-21T01:41:53;22.30;;;11.63;;
43042;SDS011;28667;50.758;6.096;2023-11-21T01:44:19;20.45;;;10.57;;
43042;SDS011;28667;50.758;6.096;2023-11-21T01:46:45;18.27;;;8.90;;
43042;SDS011;28667;50.758;6.096;2023-11-21T01:49:12;24.02;;;10.50;;
43042;SDS011;28667;50.758;6.096;2023-11-21T01:51:41;25.25;;;12.30;;
43042;SDS011;28667;50.758;6.096;2023-11-21T01:54:11;23.02;;;11.77;;
43042;SDS011;28667;50.758;6.096;2023-11-21T01:56:38;23.55;;;11.95;;
43042;SDS011;28667;50.758;6.096;2023-11-21T01:59:04;25.10;;;11.98;;
43042;SDS011;28667;50.758;6.096;2023-11-21T02:01:32;20.00;;;11.77;;
43042;SDS011;28667;50.758;6.096;2023-11-21T02:03:59;21.85;;;10.43;;
43042;SDS011;28667;50.758;6.096;2023-11-21T02:06:24;21.98;;;12.02;;
43042;SDS011;28667;50.758;6.096;2023-11-21T02:08:51;22.45;;;11.00;;
43042;SDS011;28667;50.758;6.096;2023-11-21T02:11:18;19.38;;;10.95;;
43042;SDS011;28667;50.758;6.096;2023-11-21T02:13:46;24.05;;;11.95;;
43042;SDS011;28667;50.758;6.096;2023-11-21T02:16:12;24.27;;;12.77;;
43042;SDS011;28667;50.758;6.096;2023-11-21T02:18:39;23.20;;;11.15;;
43042;SDS011;28667;50.758;6.096;2023-11-21T02:21:04;27.25;;;12.50;;
43042;SDS011;28667;50.758;6.096;2023-11-21T02:23:30;22.40;;;11.20;;
43042;SDS011;28667;50.758;6.096;2023-11-21T02:25:56;23.17;;;11.02;;
43042;SDS011;28667;50.758;6.096;2023-11-21T02:28:23;23.70;;;11.43;;
43042;SDS011;28667;50.758;6.096;2023-11-21T02:30:52;21.42;;;11.13;;
43042;SDS011;28667;50.758;6.096;2023-11-21T02:33:21;24.95;;;11.50;;
43042;SDS011;28667;50.758;6.096;2023-11-21T02:35:47;23.77;;;11.15;;
43042;SDS011;28667;50.758;6.096;2023-11-21T02:38:13;21.75;;;9.88;;
43042;SDS011;28667;50.758;6.096;2023-11-21T02:40:40;24.67;;;10.88;;
43042;SDS011;28667;50.758;6.096;2023-11-21T02:43:07;20.05;;;9.50;;
43042;SDS011;28667;50.758;6.096;2023-11-21T02:45:32;19.60;;;9.15;;
43042;SDS011;28667;50.758;6.096;2023-11-21T02:47:58;21.05;;;9.52;;
43042;SDS011;28667;50.758;6.096;2023-11-21T02:50:24;23.17;;;10.70;;
43042;SDS011;28667;50.758;6.096;2023-11-21T02:52:50;23.92;;;10.68;;
43042;SDS011;28667;50.758;6.096;2023-11-21T02:55:16;20.45;;;10.05;;
43042;SDS011;28667;50.758;6.096;2023-11-21T02:57:42;19.73;;;8.77;;
43042;SDS011;28667;50.758;6.096;2023-11-21T03:00:08;21.27;;;9.27;;
43042;SDS011;28667;50.758;6.096;2023-11-21T03:02:35;15.77;;;8.88;;
43042;SDS011;28667;50.758;6.096;2023-11-21T03:05:04;15.93;;;7.80;;
43042;SDS011;28667;50.758;6.096;2023-11-21T03:07:30;15.63;;;8.68;;
43042;SDS011;28667;50.758;6.096;2023-11-21T03:09:57;15.85;;;8.88;;
43042;SDS011;28667;50.758;6.096;2023-11-21T03:12:22;17.08;;;8.90;;
43042;SDS011;28667;50.758;6.096;2023-11-21T03:14:48;18.88;;;9.15;;
43042;SDS011;28667;50.758;6.096;2023-11-21T03:17:14;16.25;;;8.38;;
43042;SDS011;28667;50.758;6.096;2023-11-21T03:19:41;12.75;;;7.30;;
43042;SDS011;28667;50.758;6.096;2023-11-21T03:22:07;15.35;;;7.88;;
43042;SDS011;28667;50.758;6.096;2023-11-21T03:24:34;18.13;;;7.95;;
43042;SDS011;28667;50.758;6.096;2023-11-21T03:27:00;15.35;;;7.72;;
43042;SDS011;28667;50.758;6.096;2023-11-21T03:29:25;19.50;;;7.47;;
43042;SDS011;28667;50.758;6.096;2023-11-21T03:31:51;16.85;;;7.38;;
43042;SDS011;28667;50.758;6.096;2023-11-21T03:34:23;14.13;;;7.05;;
43042;SDS011;28667;50.758;6.096;2023-11-21T03:36:50;15.32;;;6.88;;
43042;SDS011;28667;50.758;6.096;2023-11-21T03:39:17;13.68;;;6.95;;
43042;SDS011;28667;50.758;6.096;2023-11-21T03:41:44;14.05;;;6.65;;
43042;SDS011;28667;50.758;6.096;2023-11-21T03:44:10;13.95;;;7.30;;
43042;SDS011;28667;50.758;6.096;2023-11-21T03:46:36;13.05;;;6.97;;
43042;SDS011;28667;50.758;6.096;2023-11-21T03:49:02;13.35;;;5.93;;
43042;SDS011;28667;50.758;6.096;2023-11-21T03:51:28;14.10;;;6.88;;
43042;SDS011;28667;50.758;6.096;2023-11-21T03:53:54;8.63;;;5.70;;
43042;SDS011;28667;50.758;6.096;2023-11-21T03:56:22;13.18;;;5.95;;
43042;SDS011;28667;50.758;6.096;2023-11-21T03:58:48;12.52;;;6.45;;
43042;SDS011;28667;50.758;6.096;2023-11-21T04:01:23;11.68;;;6.50;;
43042;SDS011;28667;50.758;6.096;2023-11-21T04:03:50;9.25;;;5.65;;
43042;SDS011;28667;50.758;6.096;2023-11-21T04:06:16;12.25;;;6.28;;
43042;SDS011;28667;50.758;6.096;2023-11-21T04:08:43;11.05;;;5.82;;
43042;SDS011;28667;50.758;6.096;2023-11-21T04:11:10;13.82;;;6.95;;
43042;SDS011;28667;50.758;6.096;2023-11-21T04:13:39;14.50;;;6.20;;
43042;SDS011;28667;50.758;6.096;2023-11-21T04:16:06;13.60;;;7.15;;
43042;SDS011;28667;50.758;6.096;2023-11-21T04:18:32;20.83;;;7.97;;
43042;SDS011;28667;50.758;6.096;2023-11-21T04:20:58;14.68;;;8.07;;
43042;SDS011;28667;50.758;6.096;2023-11-21T04:23:24;14.85;;;7.53;;
43042;SDS011;28667;50.758;6.096;2023-11-21T04:25:50;13.98;;;7.35;;
43042;SDS011;28667;50.758;6.096;2023-11-21T04:28:17;12.80;;;7.72;;
43042;SDS011;28667;50.758;6.096;2023-11-21T04:30:43;15.52;;;6.85;;
43042;SDS011;28667;50.758;6.096;2023-11-21T04:33:09;16.20;;;8.30;;
43042;SDS011;28667;50.758;6.096;2023-11-21T04:35:35;14.25;;;6.97;;
43042;SDS011;28667;50.758;6.096;2023-11-21T04:38:00;12.95;;;6.53;;
43042;SDS011;28667;50.758;6.096;2023-11-21T04:40:26;13.25;;;6.53;;
43042;SDS011;28667;50.758;6.096;2023-11-21T04:42:52;16.13;;;8.15;;
43042;SDS011;28667;50.758;6.096;2023-11-21T04:45:18;21.05;;;9.55;;
43042;SDS011;28667;50.758;6.096;2023-11-21T04:47:43;26.10;;;11.00;;
43042;SDS011;28667;50.758;6.096;2023-11-21T04:50:10;18.73;;;9.02;;
43042;SDS011;28667;50.758;6.096;2023-11-21T04:52:38;22.92;;;11.25;;
43042;SDS011;28667;50.758;6.096;2023-11-21T04:55:04;20.67;;;9.52;;
43042;SDS011;28667;50.758;6.096;2023-11-21T04:57:32;21.85;;;10.90;;
43042;SDS011;28667;50.758;6.096;2023-11-21T04:59:57;22.02;;;10.15;;
43042;SDS011;28667;50.758;6.096;2023-11-21T05:02:23;22.80;;;10.25;;
43042;SDS011;28667;50.758;6.096;2023-11-21T05:04:49;22.83;;;10.77;;
43042;SDS011;28667;50.758;6.096;2023-11-21T05:07:14;21.23;;;10.02;;
43042;SDS011;28667;50.758;6.096;2023-11-21T05:09:42;23.75;;;11.45;;
43042;SDS011;28667;50.758;6.096;2023-11-21T05:12:09;20.85;;;10.00;;
43042;SDS011;28667;50.758;6.096;2023-11-21T05:14:36;20.88;;;10.40;;
43042;SDS011;28667;50.758;6.096;2023-11-21T05:17:02;18.35;;;10.60;;
43042;SDS011;28667;50.758;6.096;2023-11-21T05:19:29;20.90;;;10.43;;
43042;SDS011;28667;50.758;6.096;2023-11-21T05:21:55;21.50;;;9.70;;
43042;SDS011;28667;50.758;6.096;2023-11-21T05:24:20;18.83;;;9.82;;
43042;SDS011;28667;50.758;6.096;2023-11-21T05:26:46;21.02;;;9.93;;
43042;SDS011;28667;50.758;6.096;2023-11-21T05:29:12;20.48;;;9.13;;
43042;SDS011;28667;50.758;6.096;2023-11-21T05:31:37;19.45;;;9.60;;
43042;SDS011;28667;50.758;6.096;2023-11-21T05:34:03;24.50;;;10.65;;
43042;SDS011;28667;50.758;6.096;2023-11-21T05:36:30;24.95;;;12.02;;
43042;SDS011;28667;50.758;6.096;2023-11-21T05:38:56;23.38;;;11.13;;
43042;SDS011;28667;50.758;6.096;2023-11-21T05:41:22;24.23;;;11.32;;
43042;SDS011;28667;50.758;6.096;2023-11-21T05:43:48;28.52;;;12.73;;
43042;SDS011;28667;50.758;6.096;2023-11-21T05:46:14;29.35;;;12.00;;
43042;SDS011;28667;50.758;6.096;2023-11-21T05:48:39;26.02;;;11.82;;
43042;SDS011;28667;50.758;6.096;2023-11-21T05:51:06;25.52;;;11.25;;
43042;SDS011;28667;50.758;6.096;2023-11-21T05:53:31;26.70;;;11.27;;
43042;SDS011;28667;50.758;6.096;2023-11-21T05:55:57;21.77;;;10.73;;
43042;SDS011;28667;50.758;6.096;2023-11-21T05:58:23;27.35;;;11.75;;
43042;SDS011;28667;50.758;6.096;2023-11-21T06:00:49;27.05;;;10.15;;
43042;SDS011;28667;50.758;6.096;2023-11-21T06:03:14;29.40;;;12.13;;
43042;SDS011;28667;50.758;6.096;2023-11-21T06:05:40;26.70;;;10.88;;
43042;SDS011;28667;50.758;6.096;2023-11-21T06:08:06;28.23;;;12.50;;
43042;SDS011;28667;50.758;6.096;2023-11-21T06:10:32;24.05;;;11.50;;
43042;SDS011;28667;50.758;6.096;2023-11-21T06:12:59;26.05;;;11.43;;
43042;SDS011;28667;50.758;6.096;2023-11-21T06:15:25;37.22;;;12.40;;
43042;SDS011;28667;50.758;6.096;2023-11-21T06:17:50;29.05;;;11.75;;
43042;SDS011;28667;50.758;6.096;2023-11-21T06:20:19;27.35;;;11.90;;
43042;SDS011;28667;50.758;6.096;2023-11-21T06:22:46;23.65;;;10.90;;
43042;SDS011;28667;50.758;6.096;2023-11-21T06:25:13;28.13;;;11.65;;
43042;SDS011;28667;50.758;6.096;2023-11-21T06:30:09;27.55;;;11.40;;
43042;SDS011;28667;50.758;6.096;2023-11-21T06:32:36;32.80;;;13.07;;
43042;SDS011;28667;50.758;6.096;2023-11-21T06:35:03;26.42;;;11.38;;
43042;SDS011;28667;50.758;6.096;2023-11-21T06:37:30;26.52;;;12.65;;
43042;SDS011;28667;50.758;6.096;2023-11-21T06:39:57;28.13;;;12.07;;
43042;SDS011;28667;50.758;6.096;2023-11-21T06:42:24;34.55;;;13.50;;
43042;SDS011;28667;50.758;6.096;2023-11-21T06:44:54;29.77;;;13.07;;
43042;SDS011;28667;50.758;6.096;2023-11-21T06:47:22;30.75;;;12.52;;
43042;SDS011;28667;50.758;6.096;2023-11-21T06:49:51;40.67;;;15.65;;
43042;SDS011;28667;50.758;6.096;2023-11-21T06:52:17;35.67;;;13.48;;
43042;SDS011;28667;50.758;6.096;2023-11-21T06:54:44;30.65;;;13.50;;
43042;SDS011;28667;50.758;6.096;2023-11-21T06:57:10;37.42;;;15.27;;
43042;SDS011;28667;50.758;6.096;2023-11-21T06:59:37;40.65;;;15.77;;
43042;SDS011;28667;50.758;6.096;2023-11-21T07:02:02;32.15;;;13.85;;
43042;SDS011;28667;50.758;6.096;2023-11-21T07:04:32;39.20;;;15.57;;
43042;SDS011;28667;50.758;6.096;2023-11-21T07:06:58;41.67;;;15.27;;
43042;SDS011;28667;50.758;6.096;2023-11-21T07:09:24;38.42;;;14.93;;
43042;SDS011;28667;50.758;6.096;2023-11-21T07:11:54;43.00;;;14.40;;
43042;SDS011;28667;50.758;6.096;2023-11-21T07:14:20;35.35;;;13.63;;
43042;SDS011;28667;50.758;6.096;2023-11-21T07:16:46;40.40;;;14.32;;
43042;SDS011;28667;50.758;6.096;2023-11-21T07:19:12;39.67;;;14.65;;
43042;SDS011;28667;50.758;6.096;2023-11-21T07:21:39;36.70;;;14.13;;
43042;SDS011;28667;50.758;6.096;2023-11-21T07:24:05;40.90;;;17.02;;
43042;SDS011;28667;50.758;6.096;2023-11-21T07:26:32;34.83;;;13.93;;
43042;SDS011;28667;50.758;6.096;2023-11-21T07:28:58;45.22;;;15.07;;
43042;SDS011;28667;50.758;6.096;2023-11-21T07:31:25;35.47;;;13.68;;
43042;SDS011;28667;50.758;6.096;2023-11-21T07:33:51;38.58;;;15.35;;
43042;SDS011;28667;50.758;6.096;2023-11-21T07:36:17;33.90;;;13.57;;
43042;SDS011;28667;50.758;6.096;2023-11-21T07:38:46;28.95;;;12.25;;
43042;SDS011;28667;50.758;6.096;2023-11-21T07:41:12;30.70;;;12.38;;
43042;SDS011;28667;50.758;6.096;2023-11-21T07:43:40;32.15;;;12.55;;
43042;SDS011;28667;50.758;6.096;2023-11-21T07:46:07;36.25;;;13.75;;
43042;SDS011;28667;50.758;6.096;2023-11-21T07:48:33;37.60;;;15.02;;
43042;SDS011;28667;50.758;6.096;2023-11-21T07:51:00;42.47;;;15.93;;
43042;SDS011;28667;50.758;6.096;2023-11-21T07:53:28;47.30;;;16.58;;
43042;SDS011;28667;50.758;6.096;2023-11-21T07:55:55;38.25;;;14.50;;
43042;SDS011;28667;50.758;6.096;2023-11-21T07:58:28;38.60;;;14.15;;
43042;SDS011;28667;50.758;6.096;2023-11-21T08:00:54;33.78;;;12.80;;
43042;SDS011;28667;50.758;6.096;2023-11-21T08:03:19;38.35;;;14.05;;
43042;SDS011;28667;50.758;6.096;2023-11-21T08:05:46;44.08;;;16.50;;
43042;SDS011;28667;50.758;6.096;2023-11-21T08:08:12;40.90;;;14.20;;
43042;SDS011;28667;50.758;6.096;2023-11-21T08:10:38;32.80;;;13.32;;
43042;SDS011;28667;50.758;6.096;2023-11-21T08:13:07;45.40;;;14.52;;
43042;SDS011;28667;50.758;6.096;2023-11-21T08:15:34;33.63;;;13.20;;
43042;SDS011;28667;50.758;6.096;2023-11-21T08:18:02;33.75;;;12.52;;
43042;SDS011;28667;50.758;6.096;2023-11-21T08:20:27;39.42;;;15.32;;
43042;SDS011;28667;50.758;6.096;2023-11-21T08:22:54;39.10;;;14.85;;
43042;SDS011;28667;50.758;6.096;2023-11-21T08:25:22;45.80;;;16.13;;
43042;SDS011;28667;50.758;6.096;2023-11-21T08:27:47;39.45;;;15.30;;
43042;SDS011;28667;50.758;6.096;2023-11-21T08:30:14;40.53;;;13.88;;
43042;SDS011;28667;50.758;6.096;2023-11-21T08:32:41;44.53;;;15.07;;
43042;SDS011;28667;50.758;6.096;2023-11-21T08:35:08;35.95;;;12.90;;
43042;SDS011;28667;50.758;6.096;2023-11-21T08:37:34;51.88;;;18.30;;
43042;SDS011;28667;50.758;6.096;2023-11-21T08:40:03;45.97;;;16.98;;
43042;SDS011;28667;50.758;6.096;2023-11-21T08:42:33;40.90;;;14.13;;
43042;SDS011;28667;50.758;6.096;2023-11-21T08:44:59;40.15;;;13.80;;
43042;SDS011;28667;50.758;6.096;2023-11-21T08:47:25;37.25;;;14.00;;
43042;SDS011;28667;50.758;6.096;2023-11-21T08:49:51;43.50;;;15.02;;
43042;SDS011;28667;50.758;6.096;2023-11-21T08:52:18;37.22;;;14.00;;
43042;SDS011;28667;50.758;6.096;2023-11-21T08:54:48;34.65;;;13.02;;
43042;SDS011;28667;50.758;6.096;2023-11-21T08:57:23;38.85;;;13.82;;
43042;SDS011;28667;50.758;6.096;2023-11-21T08:59:50;33.13;;;12.43;;
43042;SDS011;28667;50.758;6.096;2023-11-21T09:02:25;40.38;;;14.98;;
43042;SDS011;28667;50.758;6.096;2023-11-21T09:04:52;39.72;;;13.85;;
43042;SDS011;28667;50.758;6.096;2023-11-21T09:07:21;40.60;;;14.23;;
43042;SDS011;28667;50.758;6.096;2023-11-21T09:09:47;32.92;;;12.38;;
43042;SDS011;28667;50.758;6.096;2023-11-21T09:12:14;37.72;;;13.65;;
43042;SDS011;28667;50.758;6.096;2023-11-21T09:14:42;35.33;;;12.88;;
43042;SDS011;28667;50.758;6.096;2023-11-21T09:17:12;37.13;;;13.35;;
43042;SDS011;28667;50.758;6.096;2023-11-21T09:19:38;44.15;;;13.82;;
43042;SDS011;28667;50.758;6.096;2023-11-21T09:22:04;41.28;;;13.65;;
43042;SDS011;28667;50.758;6.096;2023-11-21T09:24:30;40.20;;;13.45;;
43042;SDS011;28667;50.758;6.096;2023-11-21T09:26:57;31.85;;;12.93;;
43042;SDS011;28667;50.758;6.096;2023-11-21T09:29:23;40.17;;;13.07;;
43042;SDS011;28667;50.758;6.096;2023-11-21T09:31:48;37.40;;;12.90;;
43042;SDS011;28667;50.758;6.096;2023-11-21T09:34:16;33.78;;;11.82;;
43042;SDS011;28667;50.758;6.096;2023-11-21T09:36:44;33.15;;;11.63;;
43042;SDS011;28667;50.758;6.096;2023-11-21T09:39:10;31.58;;;11.23;;
43042;SDS011;28667;50.758;6.096;2023-11-21T09:41:52;35.65;;;11.77;;
43042;SDS011;28667;50.758;6.096;2023-11-21T09:44:30;37.70;;;12.40;;
43042;SDS011;28667;50.758;6.096;2023-11-21T09:47:00;31.13;;;11.10;;
43042;SDS011;28667;50.758;6.096;2023-11-21T09:49:28;28.80;;;10.85;;
43042;SDS011;28667;50.758;6.096;2023-11-21T09:52:00;35.58;;;11.30;;
43042;SDS011;28667;50.758;6.096;2023-11-21T09:54:28;33.08;;;10.57;;
43042;SDS011;28667;50.758;6.096;2023-11-21T09:56:57;35.40;;;11.60;;
43042;SDS011;28667;50.758;6.096;2023-11-21T09:59:25;33.25;;;11.63;;
43042;SDS011;28667;50.758;6.096;2023-11-21T10:01:55;34.45;;;11.38;;
43042;SDS011;28667;50.758;6.096;2023-11-21T10:04:23;30.95;;;11.52;;
43042;SDS011;28667;50.758;6.096;2023-11-21T10:06:52;33.20;;;12.80;;
43042;SDS011;28667;50.758;6.096;2023-11-21T10:09:19;32.63;;;11.25;;
43042;SDS011;28667;50.758;6.096;2023-11-21T10:11:47;31.65;;;11.88;;
43042;SDS011;28667;50.758;6.096;2023-11-21T10:14:17;41.78;;;11.90;;
43042;SDS011;28667;50.758;6.096;2023-11-21T10:16:47;34.40;;;12.52;;
43042;SDS011;28667;50.758;6.096;2023-11-21T10:19:13;37.42;;;12.35;;
43042;SDS011;28667;50.758;6.096;2023-11-21T10:21:41;41.05;;;11.77;;
43042;SDS011;28667;50.758;6.096;2023-11-21T10:24:07;35.15;;;12.57;;
43042;SDS011;28667;50.758;6.096;2023-11-21T10:26:33;32.00;;;11.45;;
43042;SDS011;28667;50.758;6.096;2023-11-21T10:29:00;26.10;;;10.35;;
43042;SDS011;28667;50.758;6.096;2023-11-21T10:31:30;32.50;;;12.73;;
43042;SDS011;28667;50.758;6.096;2023-11-21T10:34:16;33.25;;;11.73;;
43042;SDS011;28667;50.758;6.096;2023-11-21T10:36:44;28.13;;;9.73;;
43042;SDS011;28667;50.758;6.096;2023-11-21T10:39:16;27.73;;;9.73;;
43042;SDS011;28667;50.758;6.096;2023-11-21T10:41:47;24.63;;;8.80;;
43042;SDS011;28667;50.758;6.096;2023-11-21T10:44:17;24.67;;;8.68;;
43042;SDS011;28667;50.758;6.096;2023-11-21T10:46:48;20.20;;;8.60;;
43042;SDS011;28667;50.758;6.096;2023-11-21T10:49:21;27.75;;;8.52;;
43042;SDS011;28667;50.758;6.096;2023-11-21T10:51:50;19.23;;;8.10;;
43042;SDS011;28667;50.758;6.096;2023-11-21T10:54:21;21.80;;;8.32;;
43042;SDS011;28667;50.758;6.096;2023-11-21T10:56:49;21.38;;;8.73;;
43042;SDS011;28667;50.758;6.096;2023-11-21T10:59:18;24.05;;;9.05;;
43042;SDS011;28667;50.758;6.096;2023-11-21T11:01:46;24.30;;;8.57;;
43042;SDS011;28667;50.758;6.096;2023-11-21T11:04:15;27.17;;;9.35;;
43042;SDS011;28667;50.758;6.096;2023-11-21T11:06:43;28.15;;;10.10;;
43042;SDS011;28667;50.758;6.096;2023-11-21T11:09:13;23.98;;;9.70;;
43042;SDS011;28667;50.758;6.096;2023-11-21T11:11:42;24.73;;;8.80;;
43042;SDS011;28667;50.758;6.096;2023-11-21T11:14:12;22.30;;;8.48;;
43042;SDS011;28667;50.758;6.096;2023-11-21T11:16:39;20.30;;;8.18;;
43042;SDS011;28667;50.758;6.096;2023-11-21T11:19:09;18.38;;;7.15;;
43042;SDS011;28667;50.758;6.096;2023-11-21T11:21:56;23.00;;;7.78;;
43042;SDS011;28667;50.758;6.096;2023-11-21T11:24:33;16.50;;;7.35;;
43042;SDS011;28667;50.758;6.096;2023-11-21T11:32:46;23.27;;;7.78;;
43042;SDS011;28667;50.758;6.096;2023-11-21T11:35:59;20.40;;;7.25;;
43042;SDS011;28667;50.758;6.096;2023-11-21T11:38:38;20.63;;;7.72;;
43042;SDS011;28667;50.758;6.096;2023-11-21T11:41:10;20.58;;;8.20;;
43042;SDS011;28667;50.758;6.096;2023-11-21T11:43:35;21.73;;;9.63;;
43042;SDS011;28667;50.758;6.096;2023-11-21T11:46:11;23.35;;;8.45;;
43042;SDS011;28667;50.758;6.096;2023-11-21T11:48:40;22.42;;;8.05;;
43042;SDS011;28667;50.758;6.096;2023-11-21T11:53:43;22.60;;;7.50;;
43042;SDS011;28667;50.758;6.096;2023-11-21T11:58:55;27.63;;;9.80;;
43042;SDS011;28667;50.758;6.096;2023-11-21T12:01:24;17.63;;;7.10;;
43042;SDS011;28667;50.758;6.096;2023-11-21T12:06:50;17.70;;;8.05;;
43042;SDS011;28667;50.758;6.096;2023-11-21T12:09:17;16.60;;;6.00;;
43042;SDS011;28667;50.758;6.096;2023-11-21T12:11:46;12.68;;;5.95;;
43042;SDS011;28667;50.758;6.096;2023-11-21T12:14:14;17.83;;;6.60;;
43042;SDS011;28667;50.758;6.096;2023-11-21T12:16:40;14.15;;;5.63;;
43042;SDS011;28667;50.758;6.096;2023-11-21T12:19:05;17.15;;;6.18;;
43042;SDS011;28667;50.758;6.096;2023-11-21T12:21:31;21.88;;;7.40;;
43042;SDS011;28667;50.758;6.096;2023-11-21T12:23:58;14.65;;;5.38;;
43042;SDS011;28667;50.758;6.096;2023-11-21T12:26:24;21.13;;;7.13;;
43042;SDS011;28667;50.758;6.096;2023-11-21T12:28:53;14.07;;;6.20;;
43042;SDS011;28667;50.758;6.096;2023-11-21T12:31:22;8.18;;;4.68;;
43042;SDS011;28667;50.758;6.096;2023-11-21T12:33:48;17.10;;;6.30;;
43042;SDS011;28667;50.758;6.096;2023-11-21T12:36:14;12.98;;;5.45;;
43042;SDS011;28667;50.758;6.096;2023-11-21T12:38:40;15.23;;;5.80;;
43042;SDS011;28667;50.758;6.096;2023-11-21T12:41:07;11.98;;;5.15;;
43042;SDS011;28667;50.758;6.096;2023-11-21T12:43:36;14.32;;;5.78;;
43042;SDS011;28667;50.758;6.096;2023-11-21T12:46:10;21.90;;;6.10;;
43042;SDS011;28667;50.758;6.096;2023-11-21T12:48:42;12.95;;;5.18;;
43042;SDS011;28667;50.758;6.096;2023-11-21T12:51:11;15.60;;;5.33;;
43042;SDS011;28667;50.758;6.096;2023-11-21T12:53:39;11.85;;;4.90;;
43042;SDS011;28667;50.758;6.096;2023-11-21T12:56:06;14.98;;;5.53;;
43042;SDS011;28667;50.758;6.096;2023-11-21T12:58:34;15.60;;;5.60;;
43042;SDS011;28667;50.758;6.096;2023-11-21T13:01:01;15.95;;;5.82;;
43042;SDS011;28667;50.758;6.096;2023-11-21T13:03:29;22.88;;;8.05;;
43042;SDS011;28667;50.758;6.096;2023-11-21T13:05:55;20.35;;;7.03;;
43042;SDS011;28667;50.758;6.096;2023-11-21T13:08:22;17.80;;;6.70;;
43042;SDS011;28667;50.758;6.096;2023-11-21T13:10:50;14.57;;;6.43;;
43042;SDS011;28667;50.758;6.096;2023-11-21T13:13:19;17.02;;;7.70;;
43042;SDS011;28667;50.758;6.096;2023-11-21T13:16:03;18.20;;;8.10;;
43042;SDS011;28667;50.758;6.096;2023-11-21T13:18:29;23.05;;;8.45;;
43042;SDS011;28667;50.758;6.096;2023-11-21T13:20:59;20.55;;;8.40;;
43042;SDS011;28667;50.758;6.096;2023-11-21T13:23:38;14.88;;;5.20;;
43042;SDS011;28667;50.758;6.096;2023-11-21T13:26:06;13.75;;;4.88;;
43042;SDS011;28667;50.758;6.096;2023-11-21T13:28:33;17.10;;;5.00;;
43042;SDS011;28667;50.758;6.096;2023-11-21T13:31:01;19.80;;;6.07;;
43042;SDS011;28667;50.758;6.096;2023-11-21T13:33:29;15.60;;;5.82;;
43042;SDS011;28667;50.758;6.096;2023-11-21T13:35:55;21.90;;;7.47;;
43042;SDS011;28667;50.758;6.096;2023-11-21T13:38:22;13.57;;;6.38;;
43042;SDS011;28667;50.758;6.096;2023-11-21T13:43:18;17.35;;;6.93;;
43042;SDS011;28667;50.758;6.096;2023-11-21T13:45:47;15.98;;;6.60;;
43042;SDS011;28667;50.758;6.096;2023-11-21T13:48:23;12.13;;;5.82;;
43042;SDS011;28667;50.758;6.096;2023-11-21T13:51:12;17.30;;;6.68;;
43042;SDS011;28667;50.758;6.096;2023-11-21T13:53:48;13.93;;;5.88;;
43042;SDS011;28667;50.758;6.096;2023-11-21T13:56:18;17.08;;;5.95;;
43042;SDS011;28667;50.758;6.096;2023-11-21T13:58:49;17.88;;;6.10;;
43042;SDS011;28667;50.758;6.096;2023-11-21T14:01:23;14.00;;;6.18;;
43042;SDS011;28667;50.758;6.096;2023-11-21T14:03:55;12.07;;;5.40;;
43042;SDS011;28667;50.758;6.096;2023-11-21T14:06:34;14.88;;;6.03;;
43042;SDS011;28667;50.758;6.096;2023-11-21T14:09:13;12.95;;;5.35;;
43042;SDS011;28667;50.758;6.096;2023-11-21T14:11:57;15.07;;;6.13;;
43042;SDS011;28667;50.758;6.096;2023-11-21T14:14:23;14.35;;;6.07;;
43042;SDS011;28667;50.758;6.096;2023-11-21T14:16:51;18.55;;;6.70;;
43042;SDS011;28667;50.758;6.096;2023-11-21T14:19:17;22.58;;;7.68;;
43042;SDS011;28667;50.758;6.096;2023-11-21T14:21:44;16.88;;;6.40;;
43042;SDS011;28667;50.758;6.096;2023-11-21T14:24:13;20.63;;;6.53;;
43042;SDS011;28667;50.758;6.096;2023-11-21T14:26:42;13.20;;;6.40;;
43042;SDS011;28667;50.758;6.096;2023-11-21T14:29:11;15.35;;;7.13;;
43042;SDS011;28667;50.758;6.096;2023-11-21T14:31:42;19.40;;;7.45;;
43042;SDS011;28667;50.758;6.096;2023-11-21T14:34:08;18.83;;;6.65;;
43042;SDS011;28667;50.758;6.096;2023-11-21T14:36:34;17.00;;;6.32;;
43042;SDS011;28667;50.758;6.096;2023-11-21T14:39:02;17.08;;;7.18;;
43042;SDS011;28667;50.758;6.096;2023-11-21T14:41:32;18.60;;;7.00;;
43042;SDS011;28667;50.758;6.096;2023-11-21T14:44:00;23.27;;;7.78;;
43042;SDS011;28667;50.758;6.096;2023-11-21T14:46:28;19.10;;;7.55;;
43042;SDS011;28667;50.758;6.096;2023-11-21T14:48:55;19.45;;;7.70;;
43042;SDS011;28667;50.758;6.096;2023-11-21T14:51:27;17.25;;;6.88;;
43042;SDS011;28667;50.758;6.096;2023-11-21T14:53:57;16.23;;;7.40;;
43042;SDS011;28667;50.758;6.096;2023-11-21T14:56:34;14.38;;;6.53;;
43042;SDS011;28667;50.758;6.096;2023-11-21T14:59:02;14.65;;;6.65;;
43042;SDS011;28667;50.758;6.096;2023-11-21T15:01:37;16.58;;;7.20;;
43042;SDS011;28667;50.758;6.096;2023-11-21T15:04:18;21.38;;;7.55;;
43042;SDS011;28667;50.758;6.096;2023-11-21T15:07:04;21.63;;;8.88;;
43042;SDS011;28667;50.758;6.096;2023-11-21T15:09:31;20.05;;;8.70;;
43042;SDS011;28667;50.758;6.096;2023-11-21T15:11:57;27.55;;;9.70;;
43042;SDS011;28667;50.758;6.096;2023-11-21T15:14:34;17.73;;;8.48;;
43042;SDS011;28667;50.758;6.096;2023-11-21T15:17:01;20.25;;;9.35;;
43042;SDS011;28667;50.758;6.096;2023-11-21T15:19:28;29.35;;;9.90;;
43042;SDS011;28667;50.758;6.096;2023-11-21T15:21:56;19.85;;;9.40;;